Colorado AWOS List, Phone Numbers, Maps

USA |  
| Search AWOS

Rocky Mountain States: Montana | Wyoming | Colorado | New Mexico

Complete weather reports: Colorado

Legend: KFNL = METAR available Follow your local AWOS on AV Mobile = METAR available on AV Mobile
Station Colorado Location Frequency Phone
KAKOFAA ID AKO, ASOS, KAKO 261353Z AUTO 34009KT 10SM SCT060 BKN080 14/06 A2997 RMK AO2 SLP115 T01440056 Follow KAKO on AV Mobile COLORADO PLAINS REGIONAL 135.475 970-345-2320
KALSFAA ID ALS, ASOS, KALS 261352Z AUTO 03004KT 10SM CLR 09/M02 A3006 Follow KALS on AV Mobile SAN LUIS VALLEY REGIONAL 135.175 719-589-5669
KASEFAA ID ASE, ASOS, KASE 261353Z 00000KT 10SM CLR 07/M06 A3004 Follow KASE on AV Mobile ASPEN-PITKIN COUNTY AIRPORT 120.400 970-925-9168
KBKFFAA ID BKF, KBKF 261358Z 27004KT 10SM BKN040 BKN110 12/06 A3001 Follow KBKF on AV Mobile Aurora, Buckley Air Force Base Airport
K7BMFAA ID 7BM, AWOS-3, K7BM 261415Z AUTO 00000KT 10SM SCT090 08/M11 A3014 RMK AO2 Follow K7BM on AV Mobile Cottonwood Pass 132.050 303-512-4919
KBDUFAA ID BDU, AWOS-3, KBDU 261416Z AUTO 00000KT 10SM BKN080 15/04 A2998 RMK AO2 Follow KBDU on AV Mobile Boulder Municipal Airport 118.825 303-541-9540
KAEJFAA ID AEJ, AWOS-3, KAEJ 261415Z AUTO 29005KT 10SM SCT120 08/M09 A3008 RMK AO2 T00771088 Follow KAEJ on AV Mobile Central Colorado Regional Airport 132.925 719-395-2599
KITRFAA ID ITR, ASOS, KITR 261353Z AUTO 05007KT 10SM CLR 17/07 A2992 RMK AO2 SLP091 T01670072 Follow KITR on AV Mobile Kit Carson County Airport 135.225 719-346-7036
K1V6FAA ID 1V6, AWOS-3, K1V6 261415Z AUTO 14004KT 10SM CLR 15/06 A2998 RMK AO2 Follow K1V6 on AV Mobile CANON CITY 120.025
KAFFFAA ID AFF, KAFF 261358Z AUTO 01009KT 10SM CLR 12/03 A3002 RMK AO2 SLP098 Follow KAFF on AV Mobile Air Force Academy
KCOSFAA ID COS, ASOS, KCOS 261354Z 02004KT 10SM FEW020 SCT120 SCT240 14/05 A3002 Follow KCOS on AV Mobile COLORADO SPRINGS MUNI 125.000 719-637-9696
KFLYFAA ID FLY, AWOS-3PT, KFLY 261418Z AUTO 03008G14KT 10SM SCT016 12/06 A3005 RMK AO2 T01190056 Follow KFLY on AV Mobile Meadowlake Airport, Peyton, CO 118.450 719-683-5371
KCCUFAA ID CCU, AWOS-3, KCCU 190154Z AUTO 12004G08KT 2 1/2SM -TSSN SCT008 BKN016 OVC023 02/M01 A3027 RMK AO2 VIS 1 3/4V5 LTG DSNT ALQS Follow KCCU on AV Mobile Copper Mountain, Red Cliff Pass 118.075 970-968-1715
KCEZFAA ID CEZ, ASOS, KCEZ 261353Z AUTO 13019G26KT 10SM OVC100 13/M04 A2998 RMK AO2 PK WND 13026/1352 SLP087 T01331044 Follow KCEZ on AV Mobile CORTEZ MONTEZUMA COUNTY AIRPORT 135.625 970-564-0193
KCAGFAA ID CAG, ASOS, KCAG 261353Z AUTO 00000KT 10SM CLR 04/01 A3004 Follow KCAG on AV Mobile CRAIG MOFFAT AIRPORT 135.425 970-824-2373
KRCVFAA ID RCV, AWOS-3PT, KRCV 261220Z AUTO 21007KT 10SM CLR 04/M03 A3008 RMK AO2 T00381032 Follow KRCV on AV Mobile DEL NORTE 118.275 719-657-9017
KAJZFAA ID AJZ, AWOS-3, KAJZ 261415Z AUTO 02005KT 10SM CLR 15/M04 A2995 RMK AO2 T01451038 Follow KAJZ on AV Mobile Blake Field Airport 134.000 970-874-3251
KDNRICAO ID KDNR Denver / Stapleton International, Co.
KAPAFAA ID APA, ASOS, KAPA 261353Z 31006KT 10SM BKN038 BKN080 OVC120 12/04 A3000 RMK AO2 SLP112 T01170039 Follow KAPA on AV Mobile DENVER CENTENNIAL AIRPORT 120.300 303-706-9098
KDENFAA ID DEN, ASOS, KDEN 261353Z 28007KT 10SM SCT045 BKN060 BKN120 12/07 A2999 Follow KDEN on AV Mobile DENVER INTERNATIONAL AIRPORT 125.600 303-342-0838
KFTGFAA ID FTG, AWOS-3, KFTG 261349Z 25004KT 10SM BKN022 OVC120 10/07 A3001 Follow KFTG on AV Mobile Front Range Airport 119.025 303-261-9104
KBJCFAA ID BJC, AWOS-3, KBJC 261346Z 00000KT 50SM SCT050 BKN120 14/05 A3001 Follow KBJC on AV Mobile Rocky Mountain Metro Airport 126.250 720-887-8067
K4V5ICAO ID K4V5 Durango Aviation Weather Reporting Station
KDROFAA ID DRO, ASOS, KDRO 261353Z AUTO 33009KT 10SM FEW090 FEW120 11/M01 A3005 RMK AO2 SLP115 T01111011 Follow KDRO on AV Mobile DURANGO-LA PLATA COUNTY AIRPORT 120.625 970-259-3579
KEGEFAA ID EGE, AWOS-3, KEGE 261350Z 00000KT 10SM CLR 04/M05 A3008 Follow KEGE on AV Mobile Eagle County Regional 135.575 970-524-7386
CO90FAA ID CO90, ASOS, KANQ 261510Z AUTO 21006KT 10SM BKN020 BKN026 24/21 A2999 RMK Follow  on AV Mobile USAF Academy Bullseye Aux Airstrip 118.325 719-683-3346
K0COFAA ID 0CO, AWOS-3, K0CO 261416Z AUTO 11016KT M1/4SM HZ OVC001 M03/M08 A3023 RMK AO2 Follow K0CO on AV Mobile EMPIRE 134.325
KEIKFAA ID EIK, AWOS-3, KEIK 261415Z AUTO 00000KT 10SM SCT055 OVC075 13/07 A2999 RMK AO2 T01270073 Follow KEIK on AV Mobile Erie Municipal Airport 133.825 303-604-4339
KFCSFAA ID FCS, KFCS 261358Z AUTO 01007KT 10SM CLR 14/04 A3000 RMK AO2 SLP117 T01380043 Follow KFCS on AV Mobile Fort Carson
KFCLICAO ID KFCL Fort Collins Supplementary Aviation Weather Reporting Station
KFNLFAA ID FNL, AWOS-3, KFNL 261415Z AUTO 02005KT 10SM CLR 11/06 A2999 RMK AO1 Follow KFNL on AV Mobile Fort Collins/Loveland, Fort Collins-Loveland Municipal Airport 135.075 970-669-9187
KFMMFAA ID FMM, AWOS-3, KFMM 261415Z AUTO 34007KT 10SM SCT065 16/05 A2997 RMK AO2 T01570049 Follow KFMM on AV Mobile Fort Morgan Municipal Airport 132.950 970-867-4823
KGNBFAA ID GNB, AWOS-3PT Granby-Grand County Airport 119.925 970-887-1803
KGJTFAA ID GJT, ASOS, KGJT 261353Z 14009KT 10SM CLR 13/M02 A2991 Follow KGJT on AV Mobile GRAND JUNCTION WALKER FIELD 118.550 970-245-7881
KGXYFAA ID GXY, AWOS-3, KGXY 261415Z AUTO 00000KT 10SM FEW070 12/06 A2999 RMK AO1 Follow KGXY on AV Mobile Greeley, Greeley-Weld County Airport 135.175 970-352-3511
K2V9ICAO ID K2V9 Gunnison Aviation Weather Reporting Station
KGUCFAA ID GUC, AWOS-3, KGUC 261415Z AUTO 00000KT 10SM CLR 05/M06 A3010 RMK AO1 Follow KGUC on AV Mobile Gunnison, Gunnison-Crested Butte Regional Airport 135.075 970-641-3240
KHDNFAA ID HDN, AWOS-3, KHDN 261415Z AUTO 00000KT 10SM CLR 07/M02 A3004 RMK AO1 Follow KHDN on AV Mobile Hayden, Yampa Valley Airport 119.275 970-276-3690
KHEQFAA ID HEQ, AWOS-3, KHEQ 260250Z AUTO 02007KT 10SM CLR 13/10 A2995 RMK AO2 LTG DSNT E Follow KHEQ on AV Mobile Holyoke Airport 119.275 970-854-3679
K20VFAA ID 20V, AWOS-3, K20V 261416Z AUTO 00000KT 10SM CLR 03/M03 A3009 RMK AO2 Follow K20V on AV Mobile Kremmling, Mc Elroy Airfield 118.425 970-724-9659
KLHXFAA ID LHX, ASOS, KLHX 261353Z AUTO 03005KT 10SM OVC018 16/11 A2992 RMK AO2 SLP080 T01610106 $ Follow KLHX on AV Mobile LA JUNTA MUNICIPAL AIRPORT 135.525 719-384-5961
KVTPFAA ID VTP, AWOS-3, KVTP 261415Z AUTO 00000KT 10SM CLR 07/M06 A3014 RMK AO2 Follow KVTP on AV Mobile La Veta Mountain, La Veta Pass 119.925 719-587-3120
KLAAFAA ID LAA, ASOS, KLAA 261353Z AUTO 06005KT 10SM OVC020 16/11 A2987 RMK AO2 SLP077 T01560106 TSNO Follow KLAA on AV Mobile LAMAR MUNICIPAL AIRPORT 135.625 719-336-3854
KLXVFAA ID LXV, ASOS, KLXV 261353Z AUTO 28003KT 10SM BKN110 01/M11 A3013 Follow KLXV on AV Mobile LEADVILLE LAKE CO 118.375 719-486-2735
KLICFAA ID LIC, ASOS, KLIC 261355Z AUTO 00000KT 10SM BKN038 BKN045 14/09 A2999 RMK AO2 SLP100 T01440089 Follow KLIC on AV Mobile LIMON MUNICIPAL AIRPORT 121.125 719-775-0515
KLMOFAA ID LMO, AWOS-3, KLMO 261414Z AUTO 00000KT 10SM SCT080 15/06 A3000 RMK AO2 T01510061 Follow KLMO on AV Mobile Vance Brand Airport 120.000 303-684-7545
KEEOFAA ID EEO, ASOS, KEEO 261353Z AUTO 00000KT 10SM CLR 06/M02 A3002 RMK AO2 SLP111 T00561022 Follow KEEO on AV Mobile MEEKER AIRPORT 135.525 970-878-5036
KMYPFAA ID MYP, AWOS-3, KMYP 261413Z AUTO 03006KT 10SM CLR 01/M08 A3031 RMK AO2 Follow KMYP on AV Mobile Salida Mountain, Monarch Pass 124.175 719-539-4436
KMTJFAA ID MTJ, ASOS, KMTJ 261353Z AUTO 11009KT 10SM CLR 12/M03 A2997 RMK AO2 SLP086 T01221033 Follow KMTJ on AV Mobile MONTROSE REGIONAL AIRPORT 135.225 970-249-1534
KMNHFAA ID MNH, AWOS-3, KMNH 261416Z AUTO 31007KT 10SM BKN019 OVC024 09/03 A3006 RMK AO2 Follow KMNH on AV Mobile Elbert Mountain, Monument Pass 134.375 303-648-3479
KCRVICAO ID KCRV Nederland Mountain, Corona Pass
KAIBFAA ID AIB, AWOS-3, KAIB 261355Z AUTO 05007KT 10SM CLR 13/M05 A2999 RMK AO2 Follow KAIB on AV Mobile Hopkins Field Airport 132.525 970-864-2325
KPSOFAA ID PSO, AWOS-3, KPSO 261415Z AUTO 00000KT 10SM CLR 11/M03 A3006 RMK AO2 T01081034 Follow KPSO on AV Mobile Stevens Field Airport 127.175 970-731-0365
KPEFICAO ID KPEF Peterson Air Force Base
KPUXICAO ID KPUX Pueblo NEXRAD
KPUBFAA ID PUB, ASOS, KPUB 261410Z AUTO 05004KT 10SM FEW022 SCT028 OVC034 16/08 A2996 Follow KPUB on AV Mobile PUEBLO MEMORIAL AIRPORT 125.250 719-948-2803
4V0FAA ID 4V0, AWOS-3PT, KANQ 261510Z AUTO 21006KT 10SM BKN020 BKN026 24/21 A2999 RMK Follow  on AV Mobile RANGELY 119.025 970-675-2339
K1V1ICAO ID K1V1 Rifle Aviation Weather Reporting Station
KRILFAA ID RIL, ASOS, KRIL 261353Z AUTO 33003KT 10SM CLR 09/00 A2998 RMK AO2 SLP106 T00890000 Follow KRIL on AV Mobile RIFLE GARFIELD COUNTY RGNL 135.275 970-625-2206
K04VFAA ID 04V, AWOS-3, K04V 261415Z AUTO 31007KT 10SM SCT110 11/M03 A3006 RMK AO2 Follow K04V on AV Mobile Saguache, Saguache Municipal Airport 118.625 719-655-2229
KS29ICAO ID KS29 Salida
KANKFAA ID ANK, AWOS-3, KANK 261415Z AUTO 00000KT 10SM BKN110 06/M07 A3015 RMK AO1 T00621069 Follow KANK on AV Mobile Harriet Alexander Field Airport 133.850 719-539-5268
KSPDICAO ID KSPD, KSPD 261356Z AUTO 32013KT 13/11 A2988 RMK AO1 SLP071 T01330111 Follow KSPD on AV Mobile SPRINGFIELD COMANCHE NATL
KSBSFAA ID SBS, AWOS-3, KSBS 261416Z AUTO 11004KT 10SM CLR 06/M01 A3004 RMK AO1 T00551006 Follow KSBS on AV Mobile Steamboat Springs 118.325 970-879-7794
KSTKFAA ID STK, AWOS-3, KSTK 261410Z AUTO 00000KT 10SM BKN075 BKN100 12/08 A2995 RMK AO2 Follow KSTK on AV Mobile Sterling Municipal Airport 118.525 970-526-3009
K5SMFAA ID 5SM, AWOS-3, K5SM 261414Z AUTO 13004KT 10SM CLR 05/M08 A3018 RMK AO2 TSNO Follow K5SM on AV Mobile Sunlight 126.075 970-384-3380
KTEXFAA ID TEX, AWOS-3, KTEX 261415Z AUTO 00000KT 10SM CLR 07/M04 A3012 RMK AO2 T00721043 Follow KTEX on AV Mobile Telluride, Telluride Regional Airport 118.325 970-728-1534
KTADFAA ID TAD, ASOS, KTAD 261354Z AUTO VRB04KT 10SM CLR 12/02 A2999 RMK AO2 SLP091 T01170017 Follow KTAD on AV Mobile Trinidad, Perry Stokes Airport 119.025 719-845-1156
K33VFAA ID 33V, AWOS-3, K33V 261416Z AUTO 00000KT 10SM CLR 03/M02 A3010 RMK AO2 Follow K33V on AV Mobile WALDEN 118.625 970-723-4513
4V1FAA ID 4V1, AWOS-3, KANQ 261510Z AUTO 21006KT 10SM BKN020 BKN026 24/21 A2999 RMK Follow  on AV Mobile Spanish Peaks Airfield 123.600 719-738-1053
K4BMFAA ID 4BM, AWOS-3, K4BM 261416Z AUTO 00000KT 10SM SCT015 BKN021 BKN033 05/M01 A3022 RMK AO2 Follow K4BM on AV Mobile Wilkerson Pass 132.3 303-512-4418
KC96ICAO ID KC96 Winter Park Resort
KCPWFAA ID CPW, AWOS-3, KCPW 261417Z AUTO 20006G17KT 10SM CLR 00/M07 A3023 RMK AO2 Follow KCPW on AV Mobile Pagosa Springs, Wolf Creek Pass 121.125 970-264-2180
K2V5FAA ID 2V5, AWOS-3, K2V5 261415Z AUTO 35007KT 10SM CLR 17/10 A2993 RMK AO2 LTG DSNT NE Follow K2V5 on AV Mobile Wray Municipal Airport 118.250 970-332-5930
2V6FAA ID 2V6, AWOS-3, KANQ 261510Z AUTO 21006KT 10SM BKN020 BKN026 24/21 A2999 RMK Follow  on AV Mobile YUMA 135.375 970-848-3007

Click on the AV Mobile icon AV Mobile icon by any station to follow that AWOS feed on AirportView.net Mobile.

Legend: Commercial service airport with AWOS Commercial Airport AWOSNon-Commercial service airport with AWOS Non-Commercial Airport AWOS
Airport AWOS - Click symbol for weather report Fort Morgan Municipal Airport KFMM 261415Z AUTO 34007KT 10SM SCT065 16/05 A2997 RMK AO2 T01570049 Hopkins Field Airport KAIB 261355Z AUTO 05007KT 10SM CLR 13/M05 A2999 RMK AO2 Telluride, Telluride Regional Airport KTEX 261415Z AUTO 00000KT 10SM CLR 07/M04 A3012 RMK AO2 T00721043 Greeley, Greeley-Weld County Airport KGXY 261415Z AUTO 00000KT 10SM FEW070 12/06 A2999 RMK AO1 Front Range Airport KFTG 261349Z 25004KT 10SM BKN022 OVC120 10/07 A3001 Rocky Mountain Metro Airport KBJC 261346Z 00000KT 50SM SCT050 BKN120 14/05 A3001 DENVER CENTENNIAL AIRPORT KAPA 261353Z 31006KT 10SM BKN038 BKN080 OVC120 12/04 A3000 RMK AO2 SLP112 T01170039 DENVER INTERNATIONAL AIRPORT KDEN 261353Z 28007KT 10SM SCT045 BKN060 BKN120 12/07 A2999 Fort Collins/Loveland, Fort Collins-Loveland Municipal Airport KFNL 261415Z AUTO 02005KT 10SM CLR 11/06 A2999 RMK AO1 Boulder Municipal Airport KBDU 261416Z AUTO 00000KT 10SM BKN080 15/04 A2998 RMK AO2 Vance Brand Airport KLMO 261414Z AUTO 00000KT 10SM SCT080 15/06 A3000 RMK AO2 T01510061 Sterling Municipal Airport KSTK 261410Z AUTO 00000KT 10SM BKN075 BKN100 12/08 A2995 RMK AO2 Holyoke Airport KHEQ 260250Z AUTO 02007KT 10SM CLR 13/10 A2995 RMK AO2 LTG DSNT E COLORADO PLAINS REGIONAL KAKO 261353Z AUTO 34009KT 10SM SCT060 BKN080 14/06 A2997 RMK AO2 SLP115 T01440056 Kit Carson County Airport KITR 261353Z AUTO 05007KT 10SM CLR 17/07 A2992 RMK AO2 SLP091 T01670072 LIMON MUNICIPAL AIRPORT KLIC 261355Z AUTO 00000KT 10SM BKN038 BKN045 14/09 A2999 RMK AO2 SLP100 T01440089 COLORADO SPRINGS MUNI KCOS 261354Z 02004KT 10SM FEW020 SCT120 SCT240 14/05 A3002 LAMAR MUNICIPAL AIRPORT KLAA 261353Z AUTO 06005KT 10SM OVC020 16/11 A2987 RMK AO2 SLP077 T01560106 TSNO LA JUNTA MUNICIPAL AIRPORT KLHX 261353Z AUTO 03005KT 10SM OVC018 16/11 A2992 RMK AO2 SLP080 T01610106 $ Trinidad, Perry Stokes Airport KTAD 261354Z AUTO VRB04KT 10SM CLR 12/02 A2999 RMK AO2 SLP091 T01170017 PUEBLO MEMORIAL AIRPORT KPUB 261410Z AUTO 05004KT 10SM FEW022 SCT028 OVC034 16/08 A2996 CANON CITY 1V6 SAN LUIS VALLEY REGIONAL KALS 261352Z AUTO 03004KT 10SM CLR 09/M02 A3006 Saguache, Saguache Municipal Airport K04V 261415Z AUTO 31007KT 10SM SCT110 11/M03 A3006 RMK AO2 Granby-Grand County Airport KGNB WALDEN 33V Steamboat Springs KSBS 261416Z AUTO 11004KT 10SM CLR 06/M01 A3004 RMK AO1 T00551006 Hayden, Yampa Valley Airport KHDN 261415Z AUTO 00000KT 10SM CLR 07/M02 A3004 RMK AO1 Kremmling, Mc Elroy Airfield K20V 261416Z AUTO 00000KT 10SM CLR 03/M03 A3009 RMK AO2 LEADVILLE LAKE CO KLXV 261353Z AUTO 28003KT 10SM BKN110 01/M11 A3013 Eagle County Regional KEGE 261350Z 00000KT 10SM CLR 04/M05 A3008 CRAIG MOFFAT AIRPORT KCAG 261353Z AUTO 00000KT 10SM CLR 04/01 A3004 MEEKER AIRPORT KEEO 261353Z AUTO 00000KT 10SM CLR 06/M02 A3002 RMK AO2 SLP111 T00561022 ASPEN-PITKIN COUNTY AIRPORT KASE 261353Z 00000KT 10SM CLR 07/M06 A3004 Gunnison, Gunnison-Crested Butte Regional Airport KGUC 261415Z AUTO 00000KT 10SM CLR 05/M06 A3010 RMK AO1 DURANGO-LA PLATA COUNTY AIRPORT  KDRO 261353Z AUTO 33009KT 10SM FEW090 FEW120 11/M01 A3005 RMK AO2 SLP115 T01111011 Stevens Field Airport KPSO 261415Z AUTO 00000KT 10SM CLR 11/M03 A3006 RMK AO2 T01081034 CORTEZ MONTEZUMA COUNTY AIRPORT  KCEZ 261353Z AUTO 13019G26KT 10SM OVC100 13/M04 A2998 RMK AO2 PK WND 13026/1352 SLP087 T01331044 MONTROSE REGIONAL AIRPORT KMTJ 261353Z AUTO 11009KT 10SM CLR 12/M03 A2997 RMK AO2 SLP086 T01221033 RIFLE GARFIELD COUNTY RGNL KRIL 261353Z AUTO 33003KT 10SM CLR 09/00 A2998 RMK AO2 SLP106 T00890000 GRAND JUNCTION WALKER FIELD KGJT 261353Z 14009KT 10SM CLR 13/M02 A2991 Blake Field Airport KAJZ 261415Z AUTO 02005KT 10SM CLR 15/M04 A2995 RMK AO2 T01451038 Central Colorado Regional Airport KAEJ 261415Z AUTO 29005KT 10SM SCT120 08/M09 A3008 RMK AO2 T00771088 Harriet Alexander Field Airport KANK 261415Z AUTO 00000KT 10SM BKN110 06/M07 A3015 RMK AO1 T00621069 Erie Municipal Airport KEIK 261415Z AUTO 00000KT 10SM SCT055 OVC075 13/07 A2999 RMK AO2 T01270073 Wray Municipal Airport K2V5 261415Z AUTO 35007KT 10SM CLR 17/10 A2993 RMK AO2 LTG DSNT NE
Legend: High Mountain AWOS Mountain Pass AWOS
Mountain Pass AWOS - Click symbol for weather report Pagosa Springs, Wolf Creek Pass KCPW 261417Z AUTO 20006G17KT 10SM CLR 00/M07 A3023 RMK AO2 Saguache, Saguache Municipal Airport K04V 261415Z AUTO 31007KT 10SM SCT110 11/M03 A3006 RMK AO2 Kremmling, Mc Elroy Airfield K20V 261416Z AUTO 00000KT 10SM CLR 03/M03 A3009 RMK AO2 La Veta Mountain, La Veta Pass KVTP 261415Z AUTO 00000KT 10SM CLR 07/M06 A3014 RMK AO2 Salida Mountain, Monarch Pass KMYP 261413Z AUTO 03006KT 10SM CLR 01/M08 A3031 RMK AO2 Cottonwood Pass K7BM 261415Z AUTO 00000KT 10SM SCT090 08/M11 A3014 RMK AO2 Elbert Mountain, Monument Pass KMNH 261416Z AUTO 31007KT 10SM BKN019 OVC024 09/03 A3006 RMK AO2 Wilkerson Pass K4BM 261416Z AUTO 00000KT 10SM SCT015 BKN021 BKN033 05/M01 A3022 RMK AO2 Copper Mountain, Red Cliff Pass KCCU 190154Z AUTO 12004G08KT 2 1/2SM -TSSN SCT008 BKN016 OVC023 02/M01 A3027 RMK AO2 VIS 1 3/4V5 LTG DSNT ALQS EMPIRE 0CO Sunlight K5SM 261414Z AUTO 13004KT 10SM CLR 05/M08 A3018 RMK AO2 TSNO
Leaders in ADS-B Avemco Insurance Company